Informes de METARS cercanos

 

LEAL - Alicante/El Alte, Spain
Distance from station: SSE 60km
Actualización: 06/12/2022 23:30
Poco nuboso
Poco nuboso
 Viento del O
Viento: O 7 km/h
Temperatura: 15°C
Rocío: 13°C
Humedad: 88%
Barómetro: 1016 hPa
Clouds: Poco nuboso
Visibility: 10 km
Cloud details: Poco nuboso 1524 m
2022/12/06 22:30 LEAL 062230Z 26004KT 220V290 9999 FEW050 15/13 Q1016 NOSIG
LEVC - Valencia (civ/Mi, Spain
Distance from station: NNE 84km
Actualización: 06/12/2022 23:30
Parcialmente nuboso
Parcialmente nuboso
 Viento del NO
Viento: NO 9 km/h
Temperatura: 12°C
Rocío: 11°C
Humedad: 94%
Barómetro: 1016 hPa
Clouds: Parcialmente nuboso
Visibility: 9 km
2022/12/06 22:30 LEVC 062230Z 31005KT 9000 NSC 12/11 Q1016 NOSIG
 
LEAB - Albacete (civ/Mi, Spain
Distance from station: O 95km
Actualización: 06/12/2022 23:30
Despejado
Despejado
 Viento del O
Viento: O 6 km/h
Temperatura: 10°C
Rocío: 9°C
Humedad: 94%
Barómetro: 1017 hPa
Resumen: Despejado
Visibility: greater than 10 km
2022/12/06 22:30 LEAB 062230Z 27003KT CAVOK 10/09 Q1017 NOSIG
LERI - Alcantarilla(Sp-, Spain
Distance from station: SSO 100km
Actualización: 06/12/2022 19:00
NOT Current
Poco nuboso
Poco nuboso
 Viento del OSO
Viento: OSO 6 km/h
Temperatura: 15°C
Rocío: 14°C
Humedad: 94%
Barómetro: 1015 hPa
Clouds: Poco nuboso
Visibility: 10 km
Cloud details: Poco nuboso 762 m
2022/12/06 18:00 LERI 061800Z 24003KT 9999 FEW025 15/14 Q1015 NOSIG
 
LELC - San Javier(Mil/C, Spain
Distance from station: S 113km
Actualización: 06/12/2022 23:30
Mist, Parcialmente nuboso
Mist, Parcialmente nuboso
 Viento del ONO
Viento: ONO 6 km/h
Temperatura: 15°C
Rocío: 14°C
Humedad: 94%
Barómetro: 1016 hPa
Resumen: Mist
Clouds: Parcialmente nuboso
Visibility: 4 km
2022/12/06 22:30 LELC 062230Z AUTO 30003KT 3600 BR NSC 15/14 Q1016
LEIB - Ibiza/Es Codola, Spain
Distance from station: E 186km
Actualización: 06/12/2022 23:30
Parcialmente nuboso
Parcialmente nuboso
 Viento del calm
Viento: Calma
Temperatura: 14°C
Rocío: 13°C
Humedad: 94%
Barómetro: 1015 hPa
Clouds: Parcialmente nuboso
Visibility: 10 km
Cloud details: Parcialmente nuboso 792 m
2022/12/06 22:30 LEIB 062230Z 00000KT 9999 SCT026 14/13 Q1015 NOSIG
 
LEAM - Almeria Airport, Spain
Distance from station: SSO 256km
Actualización: 06/12/2022 23:30
Cubierto
Cubierto
 Viento del NNE
Viento: NNE 11 km/h
Temperatura: 16°C
Rocío: 14°C
Humedad: 88%
Barómetro: 1016 hPa
Clouds: Cubierto
Visibility: 10 km
Cloud details: Parcialmente nuboso 1829 m
Cubierto 2713 m
2022/12/06 22:30 LEAM 062230Z AUTO 02006KT 9999 SCT060 OVC089 16/14 Q1016
LEMD - Madrid/Barajas, Spain
Distance from station: NO 305km
Actualización: 06/12/2022 23:30
Mist, Muy nuboso
Mist, Muy nuboso
 Viento del varies
Viento: varies 2 km/h
Temperatura: 9°C
Rocío: 9°C
Humedad: 100%
Barómetro: 1017 hPa
Resumen: Mist
Clouds: Muy nuboso
Visibility: 5 km
Cloud details: Parcialmente nuboso 457 m
Muy nuboso 2134 m
2022/12/06 22:30 LEMD 062230Z VRB01KT 5000 BR SCT015 BKN070 09/09 Q1017 BECMG 3000 BR
 
LEPA - Palma De Mallorc, Spain
Distance from station: ENE 313km
Actualización: 06/12/2022 23:30
Poco nuboso
Poco nuboso
 Viento del NE
Viento: NE 7 km/h
Temperatura: 13°C
Rocío: 12°C
Humedad: 94%
Barómetro: 1015 hPa
Clouds: Poco nuboso
Visibility: 10 km
Cloud details: Poco nuboso 762 m
2022/12/06 22:30 LEPA 062230Z 04004KT 9999 FEW025 13/12 Q1015 NOSIG